createdAt,value
2023-03-26T00:01:47.260Z,100398.56
2023-03-26T00:04:19.794Z,100393.72
2023-03-26T00:06:50.496Z,100395.94
2023-03-26T00:09:19.054Z,100402.69
2023-03-26T00:11:46.982Z,100410.75
2023-03-26T00:14:17.881Z,100405.47
2023-03-26T00:16:47.712Z,100409.97
2023-03-26T00:19:16.202Z,100397.13
2023-03-26T00:21:44.091Z,100390.94
2023-03-26T00:24:17.600Z,100400.00
2023-03-26T00:26:48.704Z,100406.00
2023-03-26T00:29:17.087Z,100406.59
2023-03-26T00:31:46.365Z,100417.84
2023-03-26T00:34:18.610Z,100407.91
2023-03-26T00:36:47.227Z,100410.91
2023-03-26T00:39:15.515Z,100405.63
2023-03-26T00:41:44.340Z,100400.72
2023-03-26T00:44:13.202Z,100407.91
2023-03-26T00:46:41.356Z,100404.47
2023-03-26T00:49:11.179Z,100400.59
2023-03-26T00:51:39.600Z,100402.56
2023-03-26T00:54:08.706Z,100401.22
2023-03-26T00:56:37.184Z,100392.72
2023-03-26T00:59:05.154Z,100389.69
2023-03-26T01:01:33.243Z,100374.97
2023-03-26T01:04:27.658Z,100375.44
2023-03-26T01:07:05.100Z,100359.88
2023-03-26T01:09:36.959Z,100350.25
2023-03-26T01:12:09.198Z,100357.97
2023-03-26T01:14:38.573Z,100359.41
2023-03-26T01:17:08.045Z,100364.44
2023-03-26T01:20:06.151Z,100376.56
2023-03-26T01:22:36.844Z,100359.59
2023-03-26T01:25:05.177Z,100370.03
2023-03-26T01:27:42.525Z,100356.66
2023-03-26T01:30:21.470Z,100356.09
2023-03-26T01:33:34.136Z,100351.66
2023-03-26T01:36:23.662Z,100345.38
2023-03-26T01:39:00.600Z,100345.94
2023-03-26T01:41:37.598Z,100337.16
2023-03-26T01:44:22.691Z,100333.53
2023-03-26T01:46:52.603Z,100322.06
2023-03-26T01:49:20.722Z,100328.94
2023-03-26T01:51:48.924Z,100334.03
2023-03-26T01:54:21.553Z,100323.44
2023-03-26T01:56:52.289Z,100323.06
2023-03-26T01:59:34.976Z,100319.47
2023-03-26T02:02:10.206Z,100312.00
2023-03-26T02:04:53.613Z,100315.47
2023-03-26T02:07:35.435Z,100319.38
2023-03-26T02:10:10.667Z,100325.56
2023-03-26T02:12:43.096Z,100329.97
2023-03-26T02:15:12.724Z,100321.09
2023-03-26T02:17:40.750Z,100330.09
2023-03-26T02:20:11.407Z,100337.38
2023-03-26T02:22:41.236Z,100331.63
2023-03-26T02:25:13.655Z,100334.44
2023-03-26T02:27:43.132Z,100350.78
2023-03-26T02:30:25.926Z,100355.09
2023-03-26T02:32:59.554Z,100356.13
2023-03-26T02:35:34.422Z,100358.59
2023-03-26T02:38:03.558Z,100365.50
2023-03-26T02:40:31.558Z,100363.88
2023-03-26T02:43:00.894Z,100352.09
2023-03-26T02:45:31.280Z,100351.81
2023-03-26T02:48:20.429Z,100354.06
2023-03-26T02:51:09.204Z,100350.78
2023-03-26T02:53:48.205Z,100354.63
2023-03-26T02:56:48.485Z,100349.78
2023-03-26T02:59:24.777Z,100351.66
2023-03-26T03:02:13.574Z,100354.13
2023-03-26T03:04:42.463Z,100347.81
2023-03-26T03:07:14.529Z,100346.75
2023-03-26T03:09:42.678Z,100338.00
2023-03-26T03:12:30.965Z,100347.94
2023-03-26T03:14:58.862Z,100345.75
2023-03-26T03:17:26.995Z,100335.56
2023-03-26T03:19:54.839Z,100333.38
2023-03-26T03:22:23.024Z,100337.88
2023-03-26T03:24:57.839Z,100337.31
2023-03-26T03:27:26.373Z,100343.66
2023-03-26T03:30:09.708Z,100335.75
2023-03-26T03:32:47.064Z,100332.97
2023-03-26T03:35:19.585Z,100316.81
2023-03-26T03:37:51.249Z,100320.94
2023-03-26T03:40:20.006Z,100308.88
2023-03-26T03:42:48.118Z,100335.13
2023-03-26T03:45:24.169Z,100346.09
2023-03-26T03:48:12.344Z,100346.03
2023-03-26T03:50:43.510Z,100325.00
2023-03-26T03:53:37.371Z,100332.66
2023-03-26T03:56:10.506Z,100332.44
2023-03-26T03:59:09.181Z,100332.97
2023-03-26T04:01:38.854Z,100337.06
2023-03-26T04:04:14.262Z,100338.19
2023-03-26T04:06:57.202Z,100346.06
2023-03-26T04:09:27.387Z,100359.50
2023-03-26T04:11:59.036Z,100347.25
2023-03-26T04:14:39.428Z,100339.91
2023-03-26T04:17:15.555Z,100340.47
2023-03-26T04:19:45.405Z,100332.56
2023-03-26T04:22:15.212Z,100333.13
2023-03-26T04:24:54.719Z,100331.78
2023-03-26T04:27:44.174Z,100324.19
2023-03-26T04:30:21.076Z,100329.88
2023-03-26T04:32:58.703Z,100333.66
2023-03-26T04:35:30.562Z,100338.06
2023-03-26T04:37:58.756Z,100339.16
2023-03-26T04:40:31.505Z,100325.50
2023-03-26T04:43:02.493Z,100331.28
2023-03-26T04:46:03.041Z,100331.03
2023-03-26T04:48:33.596Z,100326.13
2023-03-26T04:51:01.818Z,100321.78
2023-03-26T04:53:30.049Z,100333.28
2023-03-26T04:57:00.232Z,100340.97
2023-03-26T04:59:46.027Z,100360.38
2023-03-26T05:02:15.765Z,100362.84
2023-03-26T05:04:50.152Z,100348.88
2023-03-26T05:07:25.308Z,100346.72
2023-03-26T05:09:57.745Z,100353.00
2023-03-26T05:13:01.048Z,100351.34
2023-03-26T05:15:34.309Z,100344.25
2023-03-26T05:18:16.794Z,100344.75
2023-03-26T05:20:50.048Z,100342.59
2023-03-26T05:23:18.196Z,100333.31
2023-03-26T05:25:52.126Z,100333.56
2023-03-26T05:28:24.566Z,100331.69
2023-03-26T05:31:01.538Z,100327.97
2023-03-26T05:33:34.086Z,100322.97
2023-03-26T05:36:15.610Z,100329.81
2023-03-26T05:38:49.764Z,100323.31
2023-03-26T05:41:37.764Z,100325.31
2023-03-26T05:44:06.179Z,100324.78
2023-03-26T05:46:34.191Z,100326.25
2023-03-26T05:49:02.305Z,100323.56
2023-03-26T05:51:34.532Z,100327.09
2023-03-26T05:54:22.746Z,100322.72
2023-03-26T05:57:09.279Z,100336.31
2023-03-26T05:59:58.768Z,100330.72
2023-03-26T06:02:48.201Z,100332.06
2023-03-26T06:05:37.576Z,100334.09
2023-03-26T06:08:26.329Z,100342.16
2023-03-26T06:11:02.417Z,100341.75
2023-03-26T06:13:34.599Z,100340.06
2023-03-26T06:16:06.442Z,100338.69
2023-03-26T06:18:37.885Z,100354.00
2023-03-26T06:21:24.011Z,100345.56
2023-03-26T06:23:57.100Z,100350.69
2023-03-26T06:26:48.290Z,100340.97
2023-03-26T06:29:24.785Z,100350.25
2023-03-26T06:32:19.607Z,100336.94
2023-03-26T06:35:02.694Z,100347.53
2023-03-26T06:37:30.998Z,100330.63
2023-03-26T06:40:01.950Z,100327.38
2023-03-26T06:43:08.605Z,100329.47
2023-03-26T06:45:55.161Z,100312.78
2023-03-26T06:48:55.201Z,100332.19
2023-03-26T06:51:41.749Z,100335.72
2023-03-26T06:54:09.904Z,100325.13
2023-03-26T06:56:55.359Z,100322.44
2023-03-26T06:59:43.362Z,100319.03
2023-03-26T07:02:30.160Z,100316.91
2023-03-26T07:05:27.460Z,100317.25
2023-03-26T07:08:13.799Z,100303.81
2023-03-26T07:11:00.374Z,100313.28
2023-03-26T07:13:52.124Z,100304.78
2023-03-26T07:16:38.810Z,100293.34
2023-03-26T07:19:30.671Z,100284.75
2023-03-26T07:21:58.979Z,100286.06
2023-03-26T07:24:46.041Z,100292.28
2023-03-26T07:27:54.819Z,100291.31
2023-03-26T07:31:00.531Z,100288.09
2023-03-26T07:33:44.398Z,100278.03
2023-03-26T07:36:48.498Z,100267.84
2023-03-26T07:40:10.983Z,100259.41
2023-03-26T07:43:35.679Z,100250.63
2023-03-26T07:46:12.560Z,100240.53
2023-03-26T07:49:13.524Z,100244.28
2023-03-26T07:52:01.638Z,100245.25
2023-03-26T07:54:49.434Z,100235.19
2023-03-26T07:57:57.357Z,100228.69
2023-03-26T08:00:59.949Z,100225.78
2023-03-26T08:03:31.974Z,100219.78
2023-03-26T08:06:34.330Z,100205.97
2023-03-26T08:09:27.211Z,100199.31
2023-03-26T08:12:30.385Z,100205.75
2023-03-26T08:15:44.224Z,100210.25
2023-03-26T08:18:27.496Z,100201.97
2023-03-26T08:21:08.288Z,100190.88
2023-03-26T08:23:51.342Z,100186.78
2023-03-26T08:26:47.892Z,100198.88
2023-03-26T08:29:23.184Z,100193.75
2023-03-26T08:31:51.481Z,100191.94
2023-03-26T08:34:19.674Z,100196.63
2023-03-26T08:36:47.815Z,100180.31
2023-03-26T08:39:15.800Z,100193.22
2023-03-26T08:41:56.823Z,100180.50
2023-03-26T08:44:55.549Z,100179.56
2023-03-26T08:47:32.724Z,100155.16
2023-03-26T08:50:29.187Z,100164.97
2023-03-26T08:53:06.005Z,100174.19
2023-03-26T08:56:12.230Z,100166.53
2023-03-26T08:59:48.482Z,100148.59
2023-03-26T09:02:22.416Z,100138.88
2023-03-26T09:05:14.867Z,100122.91
2023-03-26T09:08:03.792Z,100127.97
2023-03-26T09:10:37.960Z,100115.81
2023-03-26T09:13:24.281Z,100117.56
2023-03-26T09:16:27.333Z,100102.78
2023-03-26T09:19:17.032Z,100107.69
2023-03-26T09:21:57.940Z,100094.69
2023-03-26T09:24:38.023Z,100088.91
2023-03-26T09:27:26.814Z,100094.69
2023-03-26T09:30:34.420Z,100090.03
2023-03-26T09:33:11.965Z,100088.28
2023-03-26T09:35:57.921Z,100089.75
2023-03-26T09:39:00.607Z,100095.31
2023-03-26T09:41:55.252Z,100097.66
2023-03-26T09:44:38.349Z,100108.25
2023-03-26T09:47:38.309Z,100093.25
2023-03-26T09:50:29.917Z,100095.31
2023-03-26T09:53:09.577Z,100090.13
2023-03-26T09:56:39.868Z,100092.84
2023-03-26T09:59:29.621Z,100086.34
2023-03-26T10:02:45.558Z,100079.44
2023-03-26T10:05:44.224Z,100079.09
2023-03-26T10:08:39.634Z,100084.31
2023-03-26T10:11:16.756Z,100089.72
2023-03-26T10:14:25.941Z,100095.25
2023-03-26T10:17:11.636Z,100084.97
2023-03-26T10:19:45.798Z,100065.38
2023-03-26T10:22:16.352Z,100075.72
2023-03-26T10:25:21.628Z,100069.63
2023-03-26T10:27:55.710Z,100061.09
2023-03-26T10:30:32.862Z,100062.81
2023-03-26T10:33:24.991Z,100053.47
2023-03-26T10:36:32.761Z,100045.28
2023-03-26T10:39:36.284Z,100047.47
2023-03-26T10:42:21.757Z,100040.88
2023-03-26T10:45:14.982Z,100038.59
2023-03-26T10:48:25.964Z,100041.00
2023-03-26T10:51:03.010Z,100033.50
2023-03-26T10:53:39.827Z,100021.72
2023-03-26T10:56:19.137Z,100016.66
2023-03-26T10:58:49.316Z,100028.84
2023-03-26T11:01:42.231Z,100024.91
2023-03-26T11:04:50.769Z,100019.59
2023-03-26T11:07:27.234Z,100024.78
2023-03-26T11:10:07.271Z,100025.66
2023-03-26T11:12:47.591Z,100015.84
2023-03-26T11:15:42.161Z,100015.28
2023-03-26T11:18:23.208Z,100027.53
2023-03-26T11:21:18.634Z,100023.16
2023-03-26T11:24:26.048Z,100011.97
2023-03-26T11:27:15.385Z,100017.00
2023-03-26T11:30:01.401Z,100013.28
2023-03-26T11:32:43.122Z,99992.88
2023-03-26T11:35:55.489Z,99976.66
2023-03-26T11:38:42.294Z,99961.25
2023-03-26T11:41:16.930Z,99971.63
2023-03-26T11:44:14.162Z,99975.97
2023-03-26T11:46:46.106Z,99973.44
2023-03-26T11:49:18.524Z,99982.19
2023-03-26T11:51:49.009Z,99973.34
2023-03-26T11:54:18.089Z,99971.84
2023-03-26T11:57:05.019Z,99974.41
2023-03-26T11:59:56.462Z,99956.00
2023-03-26T12:02:29.622Z,99954.78
2023-03-26T12:05:21.953Z,99938.81
2023-03-26T12:07:56.916Z,99913.41
2023-03-26T12:10:38.438Z,99912.50
2023-03-26T12:13:30.160Z,99913.88
2023-03-26T12:16:11.753Z,99891.47
2023-03-26T12:18:41.859Z,99885.19
2023-03-26T12:21:18.310Z,99880.53
2023-03-26T12:23:58.393Z,99887.69
2023-03-26T12:26:41.629Z,99892.38
2023-03-26T12:29:14.704Z,99889.78
2023-03-26T12:32:12.411Z,99880.03
2023-03-26T12:34:40.812Z,99869.50
2023-03-26T12:37:47.381Z,99868.53
2023-03-26T12:40:36.923Z,99865.94
2023-03-26T12:44:54.826Z,99873.72
2023-03-26T12:47:58.656Z,99862.31
2023-03-26T12:49:18.932Z,99850.59
2023-03-26T12:52:11.026Z,99845.50
2023-03-26T12:55:01.189Z,99842.38
2023-03-26T12:57:38.952Z,99837.34
2023-03-26T13:00:16.644Z,99832.50
2023-03-26T13:03:00.372Z,99816.91
2023-03-26T13:05:47.841Z,99806.66
2023-03-26T13:08:15.992Z,99797.09
2023-03-26T13:11:14.057Z,99793.13
2023-03-26T13:14:09.506Z,99791.63
2023-03-26T13:17:03.974Z,99788.97
2023-03-26T13:20:07.357Z,99790.63
2023-03-26T13:23:15.809Z,99781.03
2023-03-26T13:25:58.874Z,99778.59
2023-03-26T13:28:41.448Z,99773.22
2023-03-26T13:31:23.624Z,99766.28
2023-03-26T13:34:12.895Z,99754.81
2023-03-26T13:37:14.002Z,99754.81
2023-03-26T13:40:13.940Z,99747.13
2023-03-26T13:43:14.293Z,99744.34
2023-03-26T13:45:47.025Z,99740.78
2023-03-26T13:48:24.550Z,99738.81
2023-03-26T13:51:07.154Z,99722.66
2023-03-26T13:53:50.053Z,99718.16
2023-03-26T13:56:23.958Z,99703.84
2023-03-26T13:58:59.820Z,99706.16
2023-03-26T14:01:35.353Z,99693.69
2023-03-26T14:04:25.008Z,99682.41
2023-03-26T14:07:06.612Z,99674.38
2023-03-26T14:10:10.014Z,99663.00
2023-03-26T14:15:34.911Z,99643.81
2023-03-26T14:18:32.558Z,99649.06
2023-03-26T14:21:21.371Z,99626.25
2023-03-26T14:24:02.698Z,99627.25
2023-03-26T14:27:06.941Z,99627.25
2023-03-26T14:29:34.934Z,99621.72
2023-03-26T14:32:14.988Z,99607.63
2023-03-26T14:35:05.076Z,99607.94
2023-03-26T14:38:08.704Z,99588.69
2023-03-26T14:40:56.801Z,99592.44
2023-03-26T14:43:31.028Z,99592.91
2023-03-26T14:46:07.813Z,99584.00
2023-03-26T14:48:41.823Z,99591.59
2023-03-26T14:51:34.596Z,99585.69
2023-03-26T14:54:17.650Z,99568.56
2023-03-26T14:57:18.552Z,99570.41
2023-03-26T15:00:17.126Z,99565.38
2023-03-26T15:02:47.054Z,99564.41
2023-03-26T15:05:33.978Z,99564.88
2023-03-26T15:08:37.214Z,99552.22
2023-03-26T15:11:26.115Z,99556.72
2023-03-26T15:14:00.656Z,99548.53
2023-03-26T15:16:50.543Z,99543.59
2023-03-26T15:20:07.375Z,99536.47
2023-03-26T15:23:06.327Z,99548.66
2023-03-26T15:25:53.142Z,99534.28
2023-03-26T15:28:52.656Z,99529.69
2023-03-26T15:31:41.143Z,99529.47
2023-03-26T15:34:30.558Z,99527.59
2023-03-26T15:37:23.754Z,99526.47
2023-03-26T15:40:16.749Z,99521.06
2023-03-26T15:43:02.916Z,99520.25
2023-03-26T15:46:12.247Z,99524.97
2023-03-26T15:48:52.422Z,99534.03
2023-03-26T15:51:30.199Z,99535.69
2023-03-26T15:53:57.950Z,99536.78
2023-03-26T15:57:09.033Z,99547.13
2023-03-26T15:59:43.451Z,99537.53
2023-03-26T16:02:26.867Z,99531.75
2023-03-26T16:05:03.370Z,99544.38
2023-03-26T16:08:03.436Z,99554.19
2023-03-26T16:10:57.816Z,99549.25
2023-03-26T16:13:35.227Z,99525.69
2023-03-26T16:16:03.077Z,99538.03
2023-03-26T16:18:41.200Z,99530.59
2023-03-26T16:21:32.396Z,99531.25
2023-03-26T16:24:04.130Z,99550.50
2023-03-26T16:26:32.014Z,99553.13
2023-03-26T16:29:22.427Z,99554.53
2023-03-26T16:32:12.489Z,99560.03
2023-03-26T16:34:50.694Z,99542.44
2023-03-26T16:37:41.174Z,99543.75
2023-03-26T16:40:18.529Z,99555.22
2023-03-26T16:43:17.605Z,99559.72
2023-03-26T16:46:03.734Z,99574.91
2023-03-26T16:48:46.266Z,99570.41
2023-03-26T16:51:26.498Z,99542.59
2023-03-26T16:54:01.013Z,99555.84
2023-03-26T16:56:53.216Z,99559.41
2023-03-26T16:59:30.148Z,99544.84
2023-03-26T17:02:08.617Z,99508.34
2023-03-26T17:04:37.854Z,99453.72
2023-03-26T17:07:33.282Z,99492.34
2023-03-26T17:10:16.184Z,99488.28
2023-03-26T17:12:53.070Z,99480.22
2023-03-26T17:15:32.733Z,99486.22
2023-03-26T17:18:28.208Z,99478.09
2023-03-26T17:21:15.457Z,99471.03
2023-03-26T17:24:15.049Z,99450.97
2023-03-26T17:27:07.822Z,99434.34
2023-03-26T17:30:10.167Z,99422.91
2023-03-26T17:33:07.533Z,99410.63
2023-03-26T17:35:43.051Z,99410.78
2023-03-26T17:38:28.519Z,99423.53
2023-03-26T17:40:59.677Z,99422.06
2023-03-26T17:43:38.072Z,99409.63
2023-03-26T17:46:46.528Z,99392.69
2023-03-26T17:50:49.904Z,99391.91
2023-03-26T17:53:25.457Z,99402.03
2023-03-26T17:55:55.372Z,99414.16
2023-03-26T17:58:27.346Z,99402.53
2023-03-26T18:01:03.191Z,99411.91
2023-03-26T18:03:36.488Z,99420.59
2023-03-26T18:06:09.876Z,99424.94
2023-03-26T18:09:22.626Z,99439.47
2023-03-26T18:12:28.472Z,99434.63
2023-03-26T18:15:47.256Z,99453.41
2023-03-26T18:18:21.046Z,99453.56
2023-03-26T18:20:51.786Z,99471.97
2023-03-26T18:23:29.680Z,99449.06
2023-03-26T18:26:08.929Z,99421.91
2023-03-26T18:28:44.663Z,99398.66
2023-03-26T18:31:24.851Z,99387.97
2023-03-26T18:33:59.402Z,99402.03
2023-03-26T18:36:28.181Z,99399.59
2023-03-26T18:39:05.003Z,99388.72
2023-03-26T18:41:42.051Z,99372.25
2023-03-26T18:44:16.173Z,99391.19
2023-03-26T18:46:45.951Z,99385.41
2023-03-26T18:49:17.376Z,99389.28
2023-03-26T18:51:56.699Z,99386.56
2023-03-26T18:54:29.548Z,99398.03
2023-03-26T18:56:59.529Z,99412.56
2023-03-26T18:59:32.521Z,99406.91
2023-03-26T19:02:06.930Z,99416.13
2023-03-26T19:04:37.011Z,99428.41
2023-03-26T19:07:10.662Z,99422.06
2023-03-26T19:09:40.764Z,99427.72
2023-03-26T19:12:25.391Z,99429.66
2023-03-26T19:14:57.879Z,99438.50
2023-03-26T19:17:31.759Z,99448.34
2023-03-26T19:19:59.845Z,99463.38
2023-03-26T19:22:29.681Z,99464.16
2023-03-26T19:25:01.458Z,99485.28
2023-03-26T19:27:30.310Z,99492.84
2023-03-26T19:29:58.278Z,99475.59
2023-03-26T19:32:32.557Z,99481.59
2023-03-26T19:35:04.160Z,99469.38
2023-03-26T19:37:32.710Z,99480.81
2023-03-26T19:40:31.286Z,99482.88
2023-03-26T19:42:59.847Z,99474.13
2023-03-26T19:45:28.532Z,99469.97
2023-03-26T19:48:07.483Z,99471.94
2023-03-26T19:50:46.099Z,99467.25
2023-03-26T19:53:30.966Z,99449.94
2023-03-26T19:56:14.757Z,99443.03
2023-03-26T19:58:43.667Z,99450.91
2023-03-26T20:01:24.218Z,99459.13
2023-03-26T20:03:59.022Z,99461.88
2023-03-26T20:06:42.581Z,99466.09
2023-03-26T20:09:13.458Z,99455.47
2023-03-26T20:11:41.654Z,99442.56
2023-03-26T20:14:15.997Z,99440.63
2023-03-26T20:16:45.218Z,99435.28
2023-03-26T20:19:15.013Z,99428.63
2023-03-26T20:21:45.031Z,99441.25
2023-03-26T20:24:16.072Z,99422.56
2023-03-26T20:26:45.346Z,99427.22
2023-03-26T20:29:14.108Z,99414.78
2023-03-26T20:31:42.633Z,99409.00
2023-03-26T20:34:18.789Z,99428.69
2023-03-26T20:36:47.446Z,99434.31
2023-03-26T20:39:15.676Z,99438.00
2023-03-26T20:41:48.639Z,99442.31
2023-03-26T20:44:49.103Z,99436.00
2023-03-26T20:47:19.601Z,99434.84
2023-03-26T20:49:48.109Z,99437.03
2023-03-26T20:52:15.918Z,99430.03
2023-03-26T20:54:43.740Z,99430.56
2023-03-26T20:57:14.451Z,99430.75
2023-03-26T20:59:42.448Z,99426.75
2023-03-26T21:02:13.712Z,99413.47
2023-03-26T21:04:41.887Z,99415.31
2023-03-26T21:07:17.850Z,99423.22
2023-03-26T21:09:49.823Z,99426.84
2023-03-26T21:12:35.264Z,99420.69
2023-03-26T21:15:10.342Z,99422.78
2023-03-26T21:17:46.145Z,99418.31
2023-03-26T21:20:16.902Z,99406.19
2023-03-26T21:23:12.268Z,99400.00
2023-03-26T21:26:01.468Z,99389.78
2023-03-26T21:28:41.815Z,99383.06
2023-03-26T21:31:20.057Z,99374.03
2023-03-26T21:33:49.638Z,99372.56
2023-03-26T21:36:20.039Z,99371.56
2023-03-26T21:38:48.344Z,99362.88
2023-03-26T21:41:41.719Z,99358.66
2023-03-26T21:44:10.284Z,99357.84
2023-03-26T21:46:42.042Z,99351.66
2023-03-26T21:49:11.110Z,99346.50
2023-03-26T21:51:39.153Z,99330.53
2023-03-26T21:54:33.609Z,99328.72
2023-03-26T21:57:17.765Z,99334.19
2023-03-26T21:59:57.436Z,99323.84
2023-03-26T22:02:40.104Z,99316.16
2023-03-26T22:05:16.447Z,99317.72
2023-03-26T22:07:56.260Z,99309.50
2023-03-26T22:10:24.319Z,99296.94
2023-03-26T22:12:52.208Z,99295.03
2023-03-26T22:15:20.411Z,99289.88
2023-03-26T22:17:55.996Z,99298.25
2023-03-26T22:20:25.344Z,99281.00
2023-03-26T22:22:55.435Z,99285.47
2023-03-26T22:25:24.155Z,99287.56
2023-03-26T22:27:52.853Z,99288.59
2023-03-26T22:30:20.970Z,99282.00
2023-03-26T22:32:50.348Z,99287.06
2023-03-26T22:35:18.512Z,99283.16
2023-03-26T22:37:47.540Z,99282.72
2023-03-26T22:40:15.424Z,99276.63
2023-03-26T22:42:43.330Z,99274.72
2023-03-26T22:45:12.005Z,99269.06
2023-03-26T22:47:40.310Z,99269.50
2023-03-26T22:50:12.265Z,99268.06
2023-03-26T22:52:43.698Z,99266.66
2023-03-26T22:55:12.229Z,99272.53
2023-03-26T22:57:41.509Z,99267.78
2023-03-26T23:00:19.641Z,99274.38
2023-03-26T23:02:47.631Z,99267.28
2023-03-26T23:05:18.868Z,99266.16
2023-03-26T23:07:48.957Z,99268.25
2023-03-26T23:10:16.967Z,99272.03
2023-03-26T23:12:44.724Z,99275.25
2023-03-26T23:15:12.651Z,99256.66
2023-03-26T23:17:40.868Z,99254.06
2023-03-26T23:20:15.405Z,99249.25
2023-03-26T23:22:44.021Z,99243.13
2023-03-26T23:25:12.485Z,99241.41
2023-03-26T23:27:41.556Z,99238.69
2023-03-26T23:30:11.019Z,99237.91
2023-03-26T23:32:39.071Z,99246.09
2023-03-26T23:35:07.480Z,99249.09
2023-03-26T23:37:38.996Z,99241.69
2023-03-26T23:40:09.625Z,99224.59
2023-03-26T23:42:38.178Z,99241.94
2023-03-26T23:45:06.960Z,99244.00
2023-03-26T23:47:35.124Z,99241.88
2023-03-26T23:50:04.411Z,99240.69
2023-03-26T23:52:32.344Z,99237.41
2023-03-26T23:55:00.221Z,99242.41
2023-03-26T23:57:28.300Z,99249.69
2023-03-26T23:59:56.455Z,99246.66
